Fort Sam Houston, Texas
Current Conditions -  °F | °C
As of 1:51 PM on Friday 28 Nov 2014 (Local Time) from KSAT Reporting Station
Few Clouds Few Clouds  
Wind Chill: 71°   Ceiling: Unl
Heat Index: 71°   Visibility: 10mi
Dew Point: 47°   Wind: 15mph
Humidity: 42%   Direction: 200°SSW
Pressure: 30.18"   Gusts: 26mph
Location:  29.4541°N, 98.4578°W
Report Text: KSAT 281951Z 20013G23KT 10SM FEW040 22/08 A3018 RMK AO2 SLP208 T02170083
Loading
Personal Weather Stations






























Interactive Weather Map New forecast layout! Learn more

10-Day Weather Forecast

Advertisements
Track Severe Weather on mobile